sensor_id;sensor_type;location;lat;lon;timestamp;pressure;altitude;pressure_sealevel;temperature;humidity
69524;BME280;56723;42.694;23.286;2023-05-07T07:36:06;95288.47;;;15.13;68.13
69524;BME280;56723;42.694;23.286;2023-05-07T07:38:34;95293.81;;;15.27;67.16
69524;BME280;56723;42.694;23.286;2023-05-07T07:41:02;95288.72;;;15.40;67.24
69524;BME280;56723;42.694;23.286;2023-05-07T07:43:30;95293.31;;;15.59;66.17
69524;BME280;56723;42.694;23.286;2023-05-07T07:45:57;95284.97;;;15.70;64.35
69524;BME280;56723;42.694;23.286;2023-05-07T07:48:25;95297.56;;;15.88;63.44
69524;BME280;56723;42.694;23.286;2023-05-07T07:50:52;95293.66;;;16.05;64.06
69524;BME280;56723;42.694;23.286;2023-05-07T07:53:20;95298.94;;;16.18;61.35
69524;BME280;56723;42.694;23.286;2023-05-07T07:55:47;95296.81;;;16.35;62.61
69524;BME280;56723;42.694;23.286;2023-05-07T07:58:18;95291.25;;;16.45;63.25
69524;BME280;56723;42.694;23.286;2023-05-07T08:00:48;95282.81;;;16.56;62.11
69524;BME280;56723;42.694;23.286;2023-05-07T08:03:16;95284.88;;;16.60;61.18
69524;BME280;56723;42.694;23.286;2023-05-07T08:05:48;95287.56;;;16.67;62.41
69524;BME280;56723;42.694;23.286;2023-05-07T08:08:18;95280.16;;;16.84;62.45
69524;BME280;56723;42.694;23.286;2023-05-07T08:10:45;95286.06;;;17.06;60.71
69524;BME280;56723;42.694;23.286;2023-05-07T08:13:20;95276.00;;;17.29;59.07
69524;BME280;56723;42.694;23.286;2023-05-07T08:15:48;95283.44;;;17.45;57.02
69524;BME280;56723;42.694;23.286;2023-05-07T08:18:15;95279.22;;;17.51;58.38
69524;BME280;56723;42.694;23.286;2023-05-07T08:20:46;95277.22;;;17.59;58.34
69524;BME280;56723;42.694;23.286;2023-05-07T08:23:18;95273.41;;;17.62;55.86
69524;BME280;56723;42.694;23.286;2023-05-07T08:25:45;95275.63;;;17.58;55.38
69524;BME280;56723;42.694;23.286;2023-05-07T08:28:14;95274.81;;;17.64;56.51
69524;BME280;56723;42.694;23.286;2023-05-07T08:30:41;95265.56;;;17.69;55.88
69524;BME280;56723;42.694;23.286;2023-05-07T08:33:08;95263.50;;;17.84;54.79
69524;BME280;56723;42.694;23.286;2023-05-07T08:35:36;95271.56;;;18.02;54.63
69524;BME280;56723;42.694;23.286;2023-05-07T08:38:04;95271.34;;;18.17;52.43
69524;BME280;56723;42.694;23.286;2023-05-07T08:40:37;95266.25;;;18.28;52.38
69524;BME280;56723;42.694;23.286;2023-05-07T08:43:14;95267.25;;;18.34;51.13
69524;BME280;56723;42.694;23.286;2023-05-07T08:45:45;95266.03;;;18.37;50.19
69524;BME280;56723;42.694;23.286;2023-05-07T08:48:16;95260.13;;;18.48;50.13
69524;BME280;56723;42.694;23.286;2023-05-07T08:50:50;95262.50;;;18.56;49.33
69524;BME280;56723;42.694;23.286;2023-05-07T08:53:19;95261.13;;;18.60;50.57
69524;BME280;56723;42.694;23.286;2023-05-07T08:55:48;95250.00;;;18.64;50.14
69524;BME280;56723;42.694;23.286;2023-05-07T08:58:16;95249.13;;;18.77;47.34
69524;BME280;56723;42.694;23.286;2023-05-07T09:00:43;95246.25;;;18.85;45.56
69524;BME280;56723;42.694;23.286;2023-05-07T09:03:11;95236.19;;;18.82;47.00
69524;BME280;56723;42.694;23.286;2023-05-07T09:05:43;95241.53;;;19.00;47.71
69524;BME280;56723;42.694;23.286;2023-05-07T09:08:15;95238.91;;;19.00;46.12
69524;BME280;56723;42.694;23.286;2023-05-07T09:10:45;95236.03;;;19.09;46.38
69524;BME280;56723;42.694;23.286;2023-05-07T09:13:12;95233.50;;;19.20;46.14
69524;BME280;56723;42.694;23.286;2023-05-07T09:15:42;95234.50;;;19.51;43.53
69524;BME280;56723;42.694;23.286;2023-05-07T09:18:09;95221.06;;;19.65;43.07
69524;BME280;56723;42.694;23.286;2023-05-07T09:20:38;95219.75;;;19.75;42.24
69524;BME280;56723;42.694;23.286;2023-05-07T09:23:08;95220.94;;;19.97;42.55
69524;BME280;56723;42.694;23.286;2023-05-07T09:25:36;95214.28;;;19.94;42.68
69524;BME280;56723;42.694;23.286;2023-05-07T09:28:10;95223.63;;;19.72;41.72
69524;BME280;56723;42.694;23.286;2023-05-07T09:30:38;95221.22;;;19.89;41.98
69524;BME280;56723;42.694;23.286;2023-05-07T09:33:08;95213.06;;;20.15;41.46
69524;BME280;56723;42.694;23.286;2023-05-07T09:35:39;95213.66;;;20.54;40.42
69524;BME280;56723;42.694;23.286;2023-05-07T09:38:12;95212.84;;;20.83;39.48
69524;BME280;56723;42.694;23.286;2023-05-07T09:40:39;95209.91;;;20.91;38.21
69524;BME280;56723;42.694;23.286;2023-05-07T09:43:13;95203.28;;;21.00;37.51
69524;BME280;56723;42.694;23.286;2023-05-07T09:45:50;95201.34;;;21.07;37.76
69524;BME280;56723;42.694;23.286;2023-05-07T09:48:21;95199.94;;;21.23;38.42
69524;BME280;56723;42.694;23.286;2023-05-07T09:50:55;95201.31;;;21.26;37.11
69524;BME280;56723;42.694;23.286;2023-05-07T09:53:29;95199.13;;;21.23;36.22
69524;BME280;56723;42.694;23.286;2023-05-07T09:55:59;95195.94;;;21.32;36.33
69524;BME280;56723;42.694;23.286;2023-05-07T09:58:31;95195.28;;;21.49;36.64
69524;BME280;56723;42.694;23.286;2023-05-07T10:01:00;95188.94;;;21.38;35.85
69524;BME280;56723;42.694;23.286;2023-05-07T10:03:29;95188.97;;;21.61;36.61
69524;BME280;56723;42.694;23.286;2023-05-07T10:06:04;95187.34;;;21.95;34.61
69524;BME280;56723;42.694;23.286;2023-05-07T10:08:32;95191.22;;;22.16;34.64
69524;BME280;56723;42.694;23.286;2023-05-07T10:11:01;95188.16;;;22.48;33.90
69524;BME280;56723;42.694;23.286;2023-05-07T10:13:30;95184.47;;;22.60;32.08
69524;BME280;56723;42.694;23.286;2023-05-07T10:15:59;95185.44;;;22.42;32.16
69524;BME280;56723;42.694;23.286;2023-05-07T10:18:32;95183.63;;;22.31;33.14
69524;BME280;56723;42.694;23.286;2023-05-07T10:21:20;95185.75;;;22.46;33.47
69524;BME280;56723;42.694;23.286;2023-05-07T10:24:16;95173.72;;;22.67;32.79
69524;BME280;56723;42.694;23.286;2023-05-07T10:26:49;95171.91;;;22.79;33.45
69524;BME280;56723;42.694;23.286;2023-05-07T10:29:34;95162.53;;;22.88;31.09
69524;BME280;56723;42.694;23.286;2023-05-07T10:32:26;95157.25;;;22.88;31.55
69524;BME280;56723;42.694;23.286;2023-05-07T10:35:00;95152.78;;;23.05;29.81
69524;BME280;56723;42.694;23.286;2023-05-07T10:37:29;95150.84;;;23.01;31.00
69524;BME280;56723;42.694;23.286;2023-05-07T10:39:57;95141.84;;;22.85;30.97
69524;BME280;56723;42.694;23.286;2023-05-07T10:42:26;95157.00;;;22.61;32.22
69524;BME280;56723;42.694;23.286;2023-05-07T10:44:55;95152.97;;;22.42;32.68
69524;BME280;56723;42.694;23.286;2023-05-07T10:47:27;95145.72;;;22.66;31.35
69524;BME280;56723;42.694;23.286;2023-05-07T10:52:32;95146.59;;;22.55;32.08
69524;BME280;56723;42.694;23.286;2023-05-07T11:01:09;95140.13;;;22.91;31.32
69524;BME280;56723;42.694;23.286;2023-05-07T11:04:14;95138.59;;;22.95;32.01
69524;BME280;56723;42.694;23.286;2023-05-07T11:15:13;95142.47;;;23.54;30.59
69524;BME280;56723;42.694;23.286;2023-05-07T11:17:54;95119.28;;;23.61;29.98
69524;BME280;56723;42.694;23.286;2023-05-07T11:20:58;95131.44;;;23.79;30.33
69524;BME280;56723;42.694;23.286;2023-05-07T11:26:29;95122.31;;;24.30;30.02
69524;BME280;56723;42.694;23.286;2023-05-07T11:28:58;95113.16;;;24.21;29.03
69524;BME280;56723;42.694;23.286;2023-05-07T11:31:27;95118.34;;;24.33;29.24
69524;BME280;56723;42.694;23.286;2023-05-07T11:33:59;95110.03;;;24.46;29.17
69524;BME280;56723;42.694;23.286;2023-05-07T11:36:32;95108.81;;;24.59;28.25
69524;BME280;56723;42.694;23.286;2023-05-07T11:39:02;95105.19;;;24.65;27.96
69524;BME280;56723;42.694;23.286;2023-05-07T11:41:36;95110.22;;;24.66;28.07
69524;BME280;56723;42.694;23.286;2023-05-07T11:44:05;95103.53;;;24.59;28.28
69524;BME280;56723;42.694;23.286;2023-05-07T11:46:33;95113.31;;;24.58;28.04
69524;BME280;56723;42.694;23.286;2023-05-07T11:49:00;95105.63;;;24.13;28.07
69524;BME280;56723;42.694;23.286;2023-05-07T11:51:27;95106.63;;;23.46;28.65
69524;BME280;56723;42.694;23.286;2023-05-07T11:53:54;95103.97;;;23.46;27.97
69524;BME280;56723;42.694;23.286;2023-05-07T11:56:21;95099.88;;;23.72;28.80
69524;BME280;56723;42.694;23.286;2023-05-07T11:58:48;95099.50;;;23.86;28.88
69524;BME280;56723;42.694;23.286;2023-05-07T12:01:16;95097.09;;;24.06;28.26
69524;BME280;56723;42.694;23.286;2023-05-07T12:03:44;95101.78;;;24.21;25.60
69524;BME280;56723;42.694;23.286;2023-05-07T12:06:16;95103.06;;;24.18;25.90
69524;BME280;56723;42.694;23.286;2023-05-07T12:08:44;95097.63;;;24.25;25.75
69524;BME280;56723;42.694;23.286;2023-05-07T12:11:15;95089.03;;;24.39;26.56
69524;BME280;56723;42.694;23.286;2023-05-07T12:13:44;95081.63;;;24.41;25.70
69524;BME280;56723;42.694;23.286;2023-05-07T12:16:12;95087.03;;;24.51;25.56
69524;BME280;56723;42.694;23.286;2023-05-07T12:18:39;95089.88;;;24.45;25.63
69524;BME280;56723;42.694;23.286;2023-05-07T12:21:08;95087.03;;;24.25;26.32
69524;BME280;56723;42.694;23.286;2023-05-07T12:23:36;95077.63;;;24.39;26.38
69524;BME280;56723;42.694;23.286;2023-05-07T12:26:04;95080.22;;;24.61;26.53
69524;BME280;56723;42.694;23.286;2023-05-07T12:28:37;95061.31;;;24.47;27.16
69524;BME280;56723;42.694;23.286;2023-05-07T12:31:06;95062.94;;;24.53;27.09
69524;BME280;56723;42.694;23.286;2023-05-07T12:33:34;95073.97;;;24.72;27.41
69524;BME280;56723;42.694;23.286;2023-05-07T12:36:05;95063.91;;;24.74;26.49
69524;BME280;56723;42.694;23.286;2023-05-07T12:38:35;95050.97;;;24.45;26.20
69524;BME280;56723;42.694;23.286;2023-05-07T12:41:02;95056.19;;;24.40;26.75
69524;BME280;56723;42.694;23.286;2023-05-07T12:43:29;95053.69;;;24.56;27.16
69524;BME280;56723;42.694;23.286;2023-05-07T12:46:00;95048.94;;;24.90;26.33
69524;BME280;56723;42.694;23.286;2023-05-07T12:48:28;95052.06;;;25.13;26.48
69524;BME280;56723;42.694;23.286;2023-05-07T12:50:59;95043.66;;;25.27;26.23
69524;BME280;56723;42.694;23.286;2023-05-07T12:53:27;95041.25;;;25.25;26.01
69524;BME280;56723;42.694;23.286;2023-05-07T12:55:56;95033.13;;;25.37;27.08
69524;BME280;56723;42.694;23.286;2023-05-07T13:00:52;95025.19;;;25.42;26.16
69524;BME280;56723;42.694;23.286;2023-05-07T13:03:28;95031.94;;;25.65;26.64
69524;BME280;56723;42.694;23.286;2023-05-07T13:06:00;95025.84;;;25.64;25.41
69524;BME280;56723;42.694;23.286;2023-05-07T13:08:33;95027.28;;;25.35;26.10
69524;BME280;56723;42.694;23.286;2023-05-07T13:11:02;95028.09;;;25.40;27.18
69524;BME280;56723;42.694;23.286;2023-05-07T13:13:34;95030.00;;;25.50;25.86
69524;BME280;56723;42.694;23.286;2023-05-07T13:16:03;95025.44;;;25.40;26.25
69524;BME280;56723;42.694;23.286;2023-05-07T13:18:32;95018.97;;;25.26;26.61
69524;BME280;56723;42.694;23.286;2023-05-07T13:21:00;95010.41;;;25.09;26.84
69524;BME280;56723;42.694;23.286;2023-05-07T13:23:28;95020.00;;;24.83;26.97
69524;BME280;56723;42.694;23.286;2023-05-07T13:25:54;95014.91;;;25.08;26.59
69524;BME280;56723;42.694;23.286;2023-05-07T13:28:23;95017.53;;;25.08;26.62
69524;BME280;56723;42.694;23.286;2023-05-07T13:30:50;95017.38;;;24.88;26.06
69524;BME280;56723;42.694;23.286;2023-05-07T13:33:18;95013.00;;;24.67;26.39
69524;BME280;56723;42.694;23.286;2023-05-07T13:35:45;95007.72;;;24.72;26.84
69524;BME280;56723;42.694;23.286;2023-05-07T13:38:12;95004.97;;;24.94;27.23
69524;BME280;56723;42.694;23.286;2023-05-07T13:40:39;95018.34;;;25.09;26.19
69524;BME280;56723;42.694;23.286;2023-05-07T13:43:06;95012.25;;;25.08;26.96
69524;BME280;56723;42.694;23.286;2023-05-07T13:45:33;95014.81;;;25.35;26.82
69524;BME280;56723;42.694;23.286;2023-05-07T13:48:00;95010.59;;;25.44;25.72
69524;BME280;56723;42.694;23.286;2023-05-07T13:50:27;95010.59;;;25.44;26.19
69524;BME280;56723;42.694;23.286;2023-05-07T13:52:56;95012.47;;;25.49;26.80
69524;BME280;56723;42.694;23.286;2023-05-07T13:55:24;95015.16;;;25.54;26.37
69524;BME280;56723;42.694;23.286;2023-05-07T13:57:58;95013.66;;;25.68;26.22
69524;BME280;56723;42.694;23.286;2023-05-07T14:00:26;95017.69;;;25.76;26.53
69524;BME280;56723;42.694;23.286;2023-05-07T14:02:54;95013.19;;;25.86;25.86
69524;BME280;56723;42.694;23.286;2023-05-07T14:05:22;95018.75;;;25.75;25.78
69524;BME280;56723;42.694;23.286;2023-05-07T14:07:56;95022.72;;;25.82;26.19
69524;BME280;56723;42.694;23.286;2023-05-07T14:10:24;95022.66;;;25.62;25.91
69524;BME280;56723;42.694;23.286;2023-05-07T14:12:51;95018.16;;;25.68;26.10
69524;BME280;56723;42.694;23.286;2023-05-07T14:15:19;95019.03;;;25.88;26.19
69524;BME280;56723;42.694;23.286;2023-05-07T14:17:47;95024.06;;;25.75;26.39
69524;BME280;56723;42.694;23.286;2023-05-07T14:20:14;95005.16;;;25.66;26.39
69524;BME280;56723;42.694;23.286;2023-05-07T14:22:41;95007.72;;;25.51;26.52
69524;BME280;56723;42.694;23.286;2023-05-07T14:25:08;95019.66;;;25.06;27.06
69524;BME280;56723;42.694;23.286;2023-05-07T14:27:41;95013.13;;;24.87;27.57
69524;BME280;56723;42.694;23.286;2023-05-07T14:30:08;95011.75;;;24.79;27.78
69524;BME280;56723;42.694;23.286;2023-05-07T14:32:36;95014.16;;;24.81;27.49
69524;BME280;56723;42.694;23.286;2023-05-07T14:35:04;95010.38;;;24.72;27.24
69524;BME280;56723;42.694;23.286;2023-05-07T14:37:31;95006.84;;;24.61;27.35
69524;BME280;56723;42.694;23.286;2023-05-07T14:39:58;95003.84;;;24.52;27.37
69524;BME280;56723;42.694;23.286;2023-05-07T14:42:25;95002.09;;;24.63;27.52
69524;BME280;56723;42.694;23.286;2023-05-07T14:44:52;95001.22;;;24.90;27.44
69524;BME280;56723;42.694;23.286;2023-05-07T14:47:19;94999.56;;;25.15;27.37
69524;BME280;56723;42.694;23.286;2023-05-07T14:49:46;94989.03;;;25.31;26.77
69524;BME280;56723;42.694;23.286;2023-05-07T14:52:13;94986.91;;;25.23;27.74
69524;BME280;56723;42.694;23.286;2023-05-07T14:54:41;94991.09;;;25.18;27.19
69524;BME280;56723;42.694;23.286;2023-05-07T14:57:09;94998.03;;;25.25;27.45
69524;BME280;56723;42.694;23.286;2023-05-07T14:59:37;94989.25;;;25.24;27.09
69524;BME280;56723;42.694;23.286;2023-05-07T15:02:05;94991.91;;;24.82;28.51
69524;BME280;56723;42.694;23.286;2023-05-07T15:04:36;94996.16;;;25.20;27.69
69524;BME280;56723;42.694;23.286;2023-05-07T15:07:04;94998.81;;;25.25;27.53
69524;BME280;56723;42.694;23.286;2023-05-07T15:09:31;95003.22;;;25.51;26.65
69524;BME280;56723;42.694;23.286;2023-05-07T15:11:58;94999.28;;;25.59;26.54
69524;BME280;56723;42.694;23.286;2023-05-07T15:14:25;94994.56;;;25.71;26.32
69524;BME280;56723;42.694;23.286;2023-05-07T15:16:54;94989.16;;;25.61;27.21
69524;BME280;56723;42.694;23.286;2023-05-07T15:19:24;94990.69;;;25.37;26.62
69524;BME280;56723;42.694;23.286;2023-05-07T15:21:57;94997.72;;;25.63;26.56
69524;BME280;56723;42.694;23.286;2023-05-07T15:24:26;94990.94;;;25.35;27.09
69524;BME280;56723;42.694;23.286;2023-05-07T15:26:53;94991.66;;;25.21;26.39
69524;BME280;56723;42.694;23.286;2023-05-07T15:29:26;94993.31;;;25.37;27.17
69524;BME280;56723;42.694;23.286;2023-05-07T15:32:07;94990.28;;;25.65;26.69
69524;BME280;56723;42.694;23.286;2023-05-07T15:34:47;94975.50;;;25.90;26.46
69524;BME280;56723;42.694;23.286;2023-05-07T15:37:13;94977.13;;;25.96;26.04
69524;BME280;56723;42.694;23.286;2023-05-07T15:39:40;94976.06;;;26.02;25.79
69524;BME280;56723;42.694;23.286;2023-05-07T15:42:07;94959.59;;;26.00;25.90
69524;BME280;56723;42.694;23.286;2023-05-07T15:44:34;94971.84;;;26.06;25.92
69524;BME280;56723;42.694;23.286;2023-05-07T15:47:01;94968.66;;;26.09;26.06
69524;BME280;56723;42.694;23.286;2023-05-07T15:49:28;94962.31;;;26.15;25.79
69524;BME280;56723;42.694;23.286;2023-05-07T15:51:55;94970.00;;;26.27;25.91
69524;BME280;56723;42.694;23.286;2023-05-07T15:54:23;94968.44;;;26.36;25.54
69524;BME280;56723;42.694;23.286;2023-05-07T15:56:50;94967.66;;;26.45;25.49
69524;BME280;56723;42.694;23.286;2023-05-07T15:59:17;94965.00;;;26.71;25.20
69524;BME280;56723;42.694;23.286;2023-05-07T16:01:44;94954.88;;;26.78;25.15
69524;BME280;56723;42.694;23.286;2023-05-07T16:04:11;94964.47;;;26.84;25.03
69524;BME280;56723;42.694;23.286;2023-05-07T16:06:38;94960.72;;;26.95;24.46
69524;BME280;56723;42.694;23.286;2023-05-07T16:09:05;94956.72;;;26.92;24.42
69524;BME280;56723;42.694;23.286;2023-05-07T16:11:33;94960.72;;;26.85;25.03
69524;BME280;56723;42.694;23.286;2023-05-07T16:14:00;94959.13;;;26.89;25.61
69524;BME280;56723;42.694;23.286;2023-05-07T16:16:27;94960.19;;;27.03;25.61
69524;BME280;56723;42.694;23.286;2023-05-07T16:18:55;94962.06;;;26.98;25.78
69524;BME280;56723;42.694;23.286;2023-05-07T16:21:23;94959.97;;;26.49;25.74
69524;BME280;56723;42.694;23.286;2023-05-07T16:23:49;94965.97;;;25.94;27.06
69524;BME280;56723;42.694;23.286;2023-05-07T16:26:17;94964.72;;;25.49;27.45
69524;BME280;56723;42.694;23.286;2023-05-07T16:28:44;94969.38;;;25.22;28.04
69524;BME280;56723;42.694;23.286;2023-05-07T16:31:11;94971.91;;;25.01;28.95
69524;BME280;56723;42.694;23.286;2023-05-07T16:33:38;94973.97;;;24.94;28.12
69524;BME280;56723;42.694;23.286;2023-05-07T16:36:05;94965.31;;;24.72;29.01
69524;BME280;56723;42.694;23.286;2023-05-07T16:38:32;94978.28;;;24.36;30.07
69524;BME280;56723;42.694;23.286;2023-05-07T16:41:00;94972.88;;;23.99;31.17
69524;BME280;56723;42.694;23.286;2023-05-07T16:43:27;94980.13;;;23.60;32.35
69524;BME280;56723;42.694;23.286;2023-05-07T16:45:54;94981.53;;;23.07;33.40
69524;BME280;56723;42.694;23.286;2023-05-07T16:48:21;94977.22;;;22.68;34.41
69524;BME280;56723;42.694;23.286;2023-05-07T16:50:49;94983.47;;;22.28;34.95
69524;BME280;56723;42.694;23.286;2023-05-07T16:53:16;94980.50;;;22.08;35.58
69524;BME280;56723;42.694;23.286;2023-05-07T16:55:43;94984.34;;;21.89;36.07
69524;BME280;56723;42.694;23.286;2023-05-07T16:58:10;94988.66;;;21.66;36.77
69524;BME280;56723;42.694;23.286;2023-05-07T17:00:38;95006.31;;;21.54;37.05
69524;BME280;56723;42.694;23.286;2023-05-07T17:03:16;94996.63;;;21.43;37.17
69524;BME280;56723;42.694;23.286;2023-05-07T17:05:44;95014.31;;;21.31;37.86
69524;BME280;56723;42.694;23.286;2023-05-07T17:08:11;95009.38;;;21.11;38.13
69524;BME280;56723;42.694;23.286;2023-05-07T17:10:40;95012.47;;;20.96;38.61
69524;BME280;56723;42.694;23.286;2023-05-07T17:13:07;95020.59;;;20.83;38.93
69524;BME280;56723;42.694;23.286;2023-05-07T17:15:34;95017.72;;;20.73;39.10
69524;BME280;56723;42.694;23.286;2023-05-07T17:18:01;95013.94;;;20.57;39.58
